Time;durP1;ratioP1;P1;durP2;ratioP2;P2;SDS_P1;SDS_P2;PMS_P1;PMS_P2;Temp;Humidity;BMP_temperature;BMP_pressure;BME280_temperature;BME280_humidity;BME280_pressure;Samples;Min_cycle;Max_cycle;Signal;HPM_P1;HPM_P2
2020/12/02 00:00:40;;;;;;;0.50;0.50;;;2.70;99.90;;;;;;5070246;28;20203;-86
2020/12/02 00:03:11;;;;;;;0.50;0.50;;;2.70;99.90;;;;;;5069681;28;20740;-86
2020/12/02 00:05:41;;;;;;;0.50;0.50;;;2.70;99.90;;;;;;5070348;28;20249;-86
2020/12/02 00:08:10;;;;;;;0.40;0.40;;;2.60;99.90;;;;;;5069822;28;20253;-86
2020/12/02 00:10:37;;;;;;;0.50;0.50;;;2.60;99.90;;;;;;5069729;28;20228;-86
2020/12/02 00:13:05;;;;;;;0.50;0.50;;;2.70;99.90;;;;;;5070014;28;20635;-86
2020/12/02 00:15:31;;;;;;;0.50;0.50;;;2.70;99.90;;;;;;5069351;28;20289;-86
2020/12/02 00:17:58;;;;;;;0.50;0.50;;;2.60;99.90;;;;;;5069972;28;20208;-86
2020/12/02 00:20:25;;;;;;;0.50;0.50;;;2.60;99.90;;;;;;5069962;28;20612;-86
2020/12/02 00:22:52;;;;;;;0.50;0.50;;;2.60;99.90;;;;;;5069795;28;20249;-86
2020/12/02 00:25:19;;;;;;;0.50;0.50;;;2.60;99.90;;;;;;5069717;28;20735;-86
2020/12/02 00:27:45;;;;;;;0.50;0.50;;;2.60;99.90;;;;;;5069954;28;20199;-85
2020/12/02 00:30:15;;;;;;;0.50;0.50;;;2.60;99.90;;;;;;5069964;28;20267;-85
2020/12/02 00:32:44;;;;;;;0.50;0.50;;;2.60;99.90;;;;;;5069933;28;20204;-85
2020/12/02 00:35:14;;;;;;;0.50;0.50;;;2.60;99.90;;;;;;5069614;28;20638;-85
2020/12/02 00:37:40;;;;;;;0.47;0.47;;;2.60;99.90;;;;;;5069586;28;20731;-85
2020/12/02 00:40:09;;;;;;;0.40;0.40;;;2.60;99.90;;;;;;5069782;28;20211;-85
2020/12/02 00:42:35;;;;;;;0.50;0.50;;;2.60;99.90;;;;;;5069730;28;20642;-85
2020/12/02 00:45:01;;;;;;;0.50;0.50;;;2.60;99.90;;;;;;5069385;28;20216;-86
2020/12/02 00:47:28;;;;;;;0.50;0.50;;;2.60;99.90;;;;;;5069506;28;20200;-86
2020/12/02 00:49:56;;;;;;;0.50;0.50;;;2.60;99.90;;;;;;5069892;28;20192;-86
2020/12/02 00:52:23;;;;;;;0.50;0.50;;;2.60;99.90;;;;;;5069169;28;20264;-86
2020/12/02 00:54:49;;;;;;;0.50;0.50;;;2.60;99.90;;;;;;5069414;28;20226;-86
2020/12/02 00:57:22;;;;;;;0.50;0.50;;;2.60;99.90;;;;;;5069171;28;20319;-86
2020/12/02 00:59:52;;;;;;;0.50;0.50;;;2.70;99.90;;;;;;5069332;28;20203;-85
2020/12/02 01:02:27;;;;;;;0.50;0.50;;;2.70;99.90;;;;;;5069548;28;20210;-86
2020/12/02 01:04:54;;;;;;;0.50;0.50;;;2.60;99.90;;;;;;5069510;28;20192;-86
2020/12/02 01:07:21;;;;;;;0.50;0.50;;;2.60;99.90;;;;;;5069246;28;20645;-85
2020/12/02 01:09:50;;;;;;;0.50;0.50;;;2.60;99.90;;;;;;5070545;28;20252;-85
2020/12/02 01:12:18;;;;;;;0.50;0.50;;;2.60;99.90;;;;;;5072871;28;20655;-86
2020/12/02 01:14:45;;;;;;;0.50;0.50;;;2.60;99.90;;;;;;5072787;28;20616;-85
2020/12/02 01:17:12;;;;;;;0.50;0.50;;;2.60;99.90;;;;;;5072686;28;20227;-85
2020/12/02 01:19:39;;;;;;;0.50;0.50;;;2.60;99.90;;;;;;5073041;28;20199;-86
2020/12/02 01:22:14;;;;;;;0.50;0.50;;;2.60;99.90;;;;;;5072893;28;20199;-86
2020/12/02 01:24:49;;;;;;;0.50;0.50;;;2.60;99.90;;;;;;5073001;28;20199;-85
2020/12/02 01:27:23;;;;;;;0.50;0.50;;;2.60;99.90;;;;;;5072583;28;20203;-86
2020/12/02 01:29:50;;;;;;;0.50;0.50;;;2.60;99.90;;;;;;5072506;28;20610;-86
2020/12/02 01:32:18;;;;;;;0.50;0.50;;;2.70;99.90;;;;;;5072542;28;20670;-86
2020/12/02 01:34:47;;;;;;;0.50;0.50;;;2.70;99.90;;;;;;5072702;28;20204;-86
2020/12/02 01:37:26;;;;;;;0.50;0.50;;;2.70;99.90;;;;;;5072025;28;20281;-85
2020/12/02 01:40:00;;;;;;;0.50;0.50;;;2.70;99.90;;;;;;5072612;28;20245;-85
2020/12/02 01:42:27;;;;;;;0.50;0.50;;;2.60;99.90;;;;;;5072396;28;20257;-86
2020/12/02 01:44:54;;;;;;;0.50;0.50;;;2.60;99.90;;;;;;5072416;28;20196;-85
2020/12/02 01:47:29;;;;;;;0.50;0.50;;;2.60;99.90;;;;;;5070936;28;20254;-85
2020/12/02 01:50:02;;;;;;;0.50;0.50;;;2.60;99.90;;;;;;5072647;28;20261;-85
2020/12/02 01:52:45;;;;;;;0.50;0.50;;;2.60;99.90;;;;;;5072195;28;20199;-85
2020/12/02 01:55:17;;;;;;;0.50;0.50;;;2.70;99.90;;;;;;5072417;28;20200;-85
2020/12/02 01:57:47;;;;;;;0.50;0.50;;;2.60;99.90;;;;;;5072537;28;20233;-85
2020/12/02 02:00:19;;;;;;;0.50;0.50;;;2.60;99.90;;;;;;5071930;28;20642;-86
2020/12/02 02:02:53;;;;;;;0.50;0.50;;;2.60;99.90;;;;;;5072091;28;20196;-86
2020/12/02 02:05:26;;;;;;;0.50;0.50;;;2.60;99.90;;;;;;5070577;28;20723;-86
2020/12/02 02:07:54;;;;;;;0.50;0.50;;;2.60;99.90;;;;;;5072201;28;20685;-85
2020/12/02 02:10:23;;;;;;;0.50;0.50;;;2.60;99.90;;;;;;5071755;28;20662;-85
2020/12/02 02:13:28;;;;;;;0.50;0.50;;;2.60;99.90;;;;;;5071871;28;20204;-86
2020/12/02 02:15:59;;;;;;;0.50;0.50;;;2.60;99.90;;;;;;5071832;28;20222;-86
2020/12/02 02:18:28;;;;;;;0.50;0.50;;;2.60;99.90;;;;;;5071544;28;20580;-85
2020/12/02 02:20:57;;;;;;;0.50;0.50;;;2.50;99.90;;;;;;5071275;28;20199;-86
2020/12/02 02:23:23;;;;;;;0.50;0.50;;;2.50;99.90;;;;;;5071318;28;20620;-85
2020/12/02 02:26:16;;;;;;;0.50;0.50;;;2.50;99.90;;;;;;5071801;28;20207;-86
2020/12/02 02:28:48;;;;;;;0.50;0.50;;;2.50;99.90;;;;;;5071641;28;20200;-86
2020/12/02 02:31:19;;;;;;;0.50;0.50;;;2.50;99.90;;;;;;5071441;28;20257;-86
2020/12/02 02:33:46;;;;;;;0.50;0.50;;;2.50;99.90;;;;;;5071341;28;20507;-86
2020/12/02 02:36:13;;;;;;;0.50;0.50;;;2.50;99.90;;;;;;5071226;28;20770;-86
2020/12/02 02:38:40;;;;;;;0.50;0.50;;;2.50;99.90;;;;;;5071355;28;20200;-86
2020/12/02 02:41:08;;;;;;;0.50;0.50;;;2.60;99.90;;;;;;5071083;28;20222;-86
2020/12/02 02:43:37;;;;;;;0.50;0.50;;;2.60;99.90;;;;;;5071204;28;20257;-86
2020/12/02 02:46:04;;;;;;;0.50;0.50;;;2.50;99.90;;;;;;5071234;28;20196;-86
2020/12/02 02:48:31;;;;;;;0.50;0.50;;;2.50;99.90;;;;;;5071158;28;20203;-86
2020/12/02 02:50:58;;;;;;;0.50;0.50;;;2.50;99.90;;;;;;5071324;28;20599;-86
2020/12/02 02:53:25;;;;;;;0.50;0.50;;;2.50;99.90;;;;;;5070831;28;20535;-86
2020/12/02 02:55:54;;;;;;;0.50;0.50;;;2.40;99.90;;;;;;5071016;28;20227;-86
2020/12/02 02:58:25;;;;;;;0.50;0.50;;;2.50;99.90;;;;;;5070948;28;20211;-86
2020/12/02 03:00:52;;;;;;;0.50;0.50;;;2.50;99.90;;;;;;5070739;28;20294;-86
2020/12/02 03:03:19;;;;;;;0.50;0.50;;;2.50;99.90;;;;;;5070952;28;20206;-86
2020/12/02 03:05:45;;;;;;;0.50;0.50;;;2.50;99.90;;;;;;5071132;28;20407;-86
2020/12/02 03:08:12;;;;;;;0.50;0.50;;;2.40;99.90;;;;;;5070535;28;20215;-86
2020/12/02 03:10:40;;;;;;;0.50;0.50;;;2.50;99.90;;;;;;5070781;28;20261;-86
2020/12/02 03:13:16;;;;;;;0.50;0.50;;;2.50;99.90;;;;;;5070861;28;20211;-86
2020/12/02 03:15:43;;;;;;;0.50;0.50;;;2.40;99.90;;;;;;5070745;28;20651;-86
2020/12/02 03:18:10;;;;;;;0.50;0.50;;;2.40;99.90;;;;;;5070613;28;20257;-86
2020/12/02 03:20:39;;;;;;;0.40;0.40;;;2.40;99.90;;;;;;5070381;28;20195;-86
2020/12/02 03:23:09;;;;;;;0.50;0.50;;;2.40;99.90;;;;;;5070562;28;20602;-86
2020/12/02 03:25:35;;;;;;;0.50;0.50;;;2.40;99.90;;;;;;5070351;28;20204;-86
2020/12/02 03:28:01;;;;;;;0.50;0.50;;;2.50;99.90;;;;;;5070637;28;20658;-86
2020/12/02 03:30:27;;;;;;;0.50;0.50;;;2.50;99.90;;;;;;5070305;28;20260;-86
2020/12/02 03:32:55;;;;;;;0.50;0.50;;;2.40;99.90;;;;;;5069488;28;20257;-86
2020/12/02 03:35:22;;;;;;;0.50;0.50;;;2.50;99.90;;;;;;5070228;28;20196;-86
2020/12/02 03:37:48;;;;;;;0.50;0.50;;;2.50;99.90;;;;;;5070357;28;20204;-86
2020/12/02 03:40:14;;;;;;;0.50;0.50;;;2.50;99.90;;;;;;5069901;28;20203;-86
2020/12/02 03:42:41;;;;;;;0.50;0.50;;;2.40;99.90;;;;;;5070295;28;20619;-86
2020/12/02 03:45:09;;;;;;;0.40;0.40;;;2.50;99.90;;;;;;5070163;28;20204;-86
2020/12/02 03:47:35;;;;;;;0.50;0.50;;;2.40;99.90;;;;;;5069982;28;20375;-86
2020/12/02 03:50:02;;;;;;;0.50;0.50;;;2.50;99.90;;;;;;5070172;28;20203;-86
2020/12/02 03:52:29;;;;;;;0.50;0.50;;;2.50;99.90;;;;;;5069927;28;20203;-86
2020/12/02 03:54:55;;;;;;;0.50;0.50;;;2.40;99.90;;;;;;5070017;28;20241;-86
2020/12/02 03:57:21;;;;;;;0.50;0.50;;;2.50;99.90;;;;;;5069742;28;20227;-86
2020/12/02 03:59:47;;;;;;;0.50;0.50;;;2.50;99.90;;;;;;5069976;28;20253;-86
2020/12/02 04:02:13;;;;;;;0.50;0.50;;;2.50;99.90;;;;;;5069935;28;20241;-86
2020/12/02 04:04:39;;;;;;;0.50;0.50;;;2.50;99.90;;;;;;5069876;28;20203;-86
2020/12/02 04:07:05;;;;;;;0.50;0.50;;;2.50;99.90;;;;;;5069851;28;20199;-86
2020/12/02 04:09:32;;;;;;;0.50;0.50;;;2.50;99.90;;;;;;5069634;28;20749;-85
2020/12/02 04:11:58;;;;;;;0.50;0.50;;;2.50;99.90;;;;;;5069826;28;20224;-86
2020/12/02 04:14:24;;;;;;;0.50;0.50;;;2.50;99.90;;;;;;5069412;28;20697;-86
2020/12/02 04:16:50;;;;;;;0.50;0.50;;;2.40;99.90;;;;;;5069940;28;20223;-85
2020/12/02 04:19:16;;;;;;;0.50;0.50;;;2.40;99.90;;;;;;5069723;28;20207;-86
2020/12/02 04:21:43;;;;;;;0.50;0.50;;;2.50;99.90;;;;;;5069894;28;20257;-86
2020/12/02 04:24:09;;;;;;;0.50;0.50;;;2.50;99.90;;;;;;5069385;28;20260;-86
2020/12/02 04:26:36;;;;;;;0.40;0.40;;;2.50;99.90;;;;;;5069815;28;20252;-85
2020/12/02 04:29:02;;;;;;;0.50;0.50;;;2.50;99.90;;;;;;5069568;28;20230;-85
2020/12/02 04:31:29;;;;;;;0.50;0.50;;;2.50;99.90;;;;;;5069081;28;20286;-85
2020/12/02 04:33:55;;;;;;;0.50;0.50;;;2.40;99.90;;;;;;5069771;28;20312;-85
2020/12/02 04:36:21;;;;;;;0.50;0.50;;;2.50;99.90;;;;;;5069630;28;20223;-86
2020/12/02 04:38:47;;;;;;;0.50;0.50;;;2.50;99.90;;;;;;5069409;28;20195;-85
2020/12/02 04:41:16;;;;;;;0.50;0.50;;;2.50;99.90;;;;;;5069327;28;20203;-85
2020/12/02 04:43:46;;;;;;;0.50;0.50;;;2.50;99.90;;;;;;5069510;28;20207;-86
2020/12/02 04:46:15;;;;;;;0.50;0.50;;;2.50;99.90;;;;;;5073123;28;20207;-85
2020/12/02 04:48:52;;;;;;;0.50;0.50;;;2.40;99.90;;;;;;5073676;28;20706;-85
2020/12/02 04:51:22;;;;;;;0.50;0.50;;;2.40;99.90;;;;;;5073513;28;20203;-86
2020/12/02 04:53:50;;;;;;;0.50;0.50;;;2.40;99.90;;;;;;5073712;28;20195;-85
2020/12/02 04:56:17;;;;;;;0.50;0.50;;;2.40;99.90;;;;;;5073273;28;20223;-85
2020/12/02 04:58:47;;;;;;;0.50;0.50;;;2.50;99.90;;;;;;5073124;28;20222;-85
2020/12/02 05:01:19;;;;;;;0.50;0.50;;;2.40;99.90;;;;;;5073453;28;20606;-86
2020/12/02 05:03:54;;;;;;;0.50;0.50;;;2.40;99.90;;;;;;5073086;28;20611;-86
2020/12/02 05:06:27;;;;;;;0.50;0.50;;;2.40;99.90;;;;;;5073345;28;20211;-86
2020/12/02 05:09:04;;;;;;;0.50;0.50;;;2.50;99.90;;;;;;5073262;28;20225;-86
2020/12/02 05:11:31;;;;;;;0.50;0.50;;;2.50;99.90;;;;;;5072661;28;20231;-85
2020/12/02 05:14:03;;;;;;;0.50;0.50;;;2.40;99.90;;;;;;5073030;28;20196;-85
2020/12/02 05:16:29;;;;;;;0.50;0.50;;;2.40;99.90;;;;;;5072685;28;20285;-85
2020/12/02 05:19:01;;;;;;;0.50;0.50;;;2.40;99.90;;;;;;5072859;28;20602;-85
2020/12/02 05:21:32;;;;;;;0.50;0.50;;;2.40;99.90;;;;;;5072750;28;20452;-85
2020/12/02 05:24:06;;;;;;;0.50;0.50;;;2.40;99.90;;;;;;5073080;28;20202;-85
2020/12/02 05:26:35;;;;;;;0.50;0.50;;;2.40;99.90;;;;;;5072646;28;20196;-85
2020/12/02 05:29:08;;;;;;;0.50;0.50;;;2.20;99.90;;;;;;5073190;28;20212;-85
2020/12/02 05:31:35;;;;;;;0.50;0.50;;;2.40;99.90;;;;;;5072842;28;20257;-87
2020/12/02 05:34:12;;;;;;;0.50;0.50;;;2.40;99.90;;;;;;5072989;28;20215;-87
2020/12/02 05:36:42;;;;;;;0.50;0.50;;;2.40;99.90;;;;;;5072939;28;20227;-86
2020/12/02 05:39:18;;;;;;;0.50;0.50;;;2.40;99.90;;;;;;5072895;28;20662;-86
2020/12/02 05:41:47;;;;;;;0.47;0.47;;;2.40;99.90;;;;;;5073130;28;20203;-87
2020/12/02 05:44:19;;;;;;;0.50;0.50;;;2.40;99.90;;;;;;5072195;28;20203;-85
2020/12/02 05:46:49;;;;;;;0.50;0.50;;;2.40;99.90;;;;;;5073550;28;20341;-86
2020/12/02 05:49:19;;;;;;;0.40;0.40;;;2.40;99.90;;;;;;5072588;28;20293;-86
2020/12/02 05:51:45;;;;;;;0.50;0.50;;;2.30;99.90;;;;;;5071498;28;20204;-86
2020/12/02 05:54:13;;;;;;;0.50;0.50;;;2.40;99.90;;;;;;5072674;28;20208;-85
2020/12/02 05:56:39;;;;;;;0.50;0.50;;;2.30;99.90;;;;;;5071966;28;20747;-86
2020/12/02 05:59:06;;;;;;;0.50;0.50;;;2.30;99.90;;;;;;5072370;28;20253;-86
2020/12/02 06:01:34;;;;;;;0.50;0.50;;;2.30;99.90;;;;;;5073927;28;20257;-86
2020/12/02 06:04:00;;;;;;;0.50;0.50;;;2.30;99.90;;;;;;5073972;28;20231;-86
2020/12/02 06:06:30;;;;;;;0.50;0.50;;;2.30;99.90;;;;;;5073077;28;20203;-86
2020/12/02 06:08:57;;;;;;;0.50;0.50;;;2.20;99.90;;;;;;5072413;28;20253;-86
2020/12/02 06:11:33;;;;;;;0.50;0.50;;;2.20;99.90;;;;;;5070441;28;20277;-87
2020/12/02 06:14:04;;;;;;;0.50;0.50;;;2.20;99.90;;;;;;5072296;28;20206;-86
2020/12/02 06:16:37;;;;;;;0.50;0.50;;;2.20;99.90;;;;;;5072072;28;20261;-86
2020/12/02 06:19:15;;;;;;;0.50;0.50;;;2.20;99.90;;;;;;5069185;28;20199;-86
2020/12/02 06:21:43;;;;;;;0.50;0.50;;;2.10;99.90;;;;;;5070996;28;20262;-86
2020/12/02 06:24:12;;;;;;;0.50;0.50;;;2.20;99.90;;;;;;5072637;28;20200;-86
2020/12/02 06:26:40;;;;;;;0.50;0.50;;;2.10;99.90;;;;;;5073627;28;20932;-86
2020/12/02 06:29:18;;;;;;;0.50;0.50;;;2.20;99.90;;;;;;5073273;28;20207;-86
2020/12/02 06:31:57;;;;;;;0.50;0.50;;;2.10;99.90;;;;;;5073397;28;20250;-86
2020/12/02 06:34:25;;;;;;;0.50;0.50;;;2.10;99.90;;;;;;5073448;28;20642;-85
2020/12/02 06:37:06;;;;;;;0.50;0.50;;;2.10;99.90;;;;;;5073378;28;20288;-86
2020/12/02 06:39:36;;;;;;;0.50;0.50;;;2.20;99.90;;;;;;5072342;28;20203;-86
2020/12/02 06:42:30;;;;;;;0.50;0.50;;;2.20;99.90;;;;;;5072334;28;20204;-86
2020/12/02 06:45:08;;;;;;;0.50;0.50;;;2.20;99.90;;;;;;5071219;28;20200;-85
2020/12/02 06:47:37;;;;;;;0.50;0.50;;;2.20;99.90;;;;;;5072346;28;20200;-86
2020/12/02 06:50:11;;;;;;;0.50;0.50;;;2.20;99.90;;;;;;5072127;28;20281;-86
2020/12/02 06:52:37;;;;;;;0.50;0.50;;;2.20;99.90;;;;;;5071846;28;20200;-87
2020/12/02 06:55:15;;;;;;;0.50;0.50;;;2.20;99.90;;;;;;5073613;28;20199;-87
2020/12/02 06:57:42;;;;;;;0.50;0.50;;;2.20;99.90;;;;;;5073177;28;20227;-87
2020/12/02 07:00:16;;;;;;;0.50;0.50;;;2.20;99.90;;;;;;5073455;28;20200;-86
2020/12/02 07:02:48;;;;;;;0.50;0.50;;;2.20;99.90;;;;;;5071518;28;20265;-86
2020/12/02 07:05:24;;;;;;;0.50;0.50;;;2.20;99.90;;;;;;5073265;28;20200;-86
2020/12/02 07:08:16;;;;;;;0.50;0.50;;;2.20;99.90;;;;;;5073089;28;20203;-87
2020/12/02 07:10:52;;;;;;;0.50;0.50;;;2.10;99.90;;;;;;5072026;28;20239;-87
2020/12/02 07:13:18;;;;;;;0.50;0.50;;;2.20;99.90;;;;;;5072916;28;20191;-87
2020/12/02 07:15:44;;;;;;;0.50;0.50;;;2.20;99.90;;;;;;5073258;28;20203;-87
2020/12/02 07:18:15;;;;;;;0.50;0.50;;;2.20;99.90;;;;;;5071929;28;20204;-86
2020/12/02 07:20:44;;;;;;;0.50;0.50;;;2.20;99.90;;;;;;5073012;28;20200;-86
2020/12/02 07:23:12;;;;;;;0.50;0.50;;;2.20;99.90;;;;;;5072914;28;20200;-86
2020/12/02 07:25:39;;;;;;;0.50;0.50;;;2.20;99.90;;;;;;5072682;28;20208;-87
2020/12/02 07:28:14;;;;;;;0.50;0.50;;;2.20;99.90;;;;;;5072459;28;20196;-87
2020/12/02 07:30:40;;;;;;;0.50;0.50;;;2.20;99.90;;;;;;5072800;28;20698;-86
2020/12/02 07:33:19;;;;;;;0.50;0.50;;;2.20;99.90;;;;;;5072146;28;20662;-86
2020/12/02 07:35:47;;;;;;;0.50;0.50;;;2.10;99.90;;;;;;5072550;28;20821;-85
2020/12/02 07:38:15;;;;;;;0.50;0.50;;;2.20;99.90;;;;;;5071973;28;20202;-86
2020/12/02 07:40:42;;;;;;;0.50;0.50;;;2.20;99.90;;;;;;5072187;28;20826;-86
2020/12/02 07:43:23;;;;;;;0.50;0.50;;;2.20;99.90;;;;;;5072012;28;20203;-86
2020/12/02 07:46:02;;;;;;;0.50;0.50;;;2.20;99.90;;;;;;5076930;28;20209;-86
2020/12/02 07:48:31;;;;;;;0.50;0.50;;;2.20;99.90;;;;;;5064381;28;20199;-87
2020/12/02 07:51:01;;;;;;;0.50;0.50;;;2.20;99.90;;;;;;5052076;28;20231;-86
2020/12/02 07:53:40;;;;;;;0.50;0.50;;;2.20;99.90;;;;;;5068129;28;20199;-86
2020/12/02 07:56:15;;;;;;;0.50;0.50;;;2.20;99.90;;;;;;5052090;28;20686;-86
2020/12/02 07:58:42;;;;;;;0.50;0.50;;;2.20;99.90;;;;;;5051651;28;20821;-87
2020/12/02 08:01:23;;;;;;;0.50;0.50;;;2.20;99.90;;;;;;5052215;28;20207;-86
2020/12/02 08:03:50;;;;;;;0.50;0.50;;;2.20;99.90;;;;;;5052360;28;20226;-86
2020/12/02 08:06:25;;;;;;;0.50;0.50;;;2.20;99.90;;;;;;5051798;28;20196;-85
2020/12/02 08:08:51;;;;;;;0.50;0.50;;;2.20;99.90;;;;;;5051204;28;20257;-86
2020/12/02 08:11:18;;;;;;;0.50;0.50;;;2.20;99.90;;;;;;5051968;28;20228;-86
2020/12/02 08:13:50;;;;;;;0.50;0.50;;;2.20;99.90;;;;;;5052034;28;20492;-86
2020/12/02 08:16:28;;;;;;;0.50;0.50;;;2.20;99.90;;;;;;5051317;28;20294;-86
2020/12/02 08:18:57;;;;;;;0.50;0.50;;;2.20;99.90;;;;;;5051875;28;20583;-86
2020/12/02 08:21:26;;;;;;;0.50;0.50;;;2.10;99.90;;;;;;5051975;28;20201;-86
2020/12/02 08:24:06;;;;;;;0.50;0.50;;;2.20;99.90;;;;;;5052182;28;20868;-86
2020/12/02 08:26:34;;;;;;;0.50;0.50;;;2.20;99.90;;;;;;5051748;28;20254;-85
2020/12/02 08:29:04;;;;;;;0.50;0.50;;;2.20;99.90;;;;;;5052337;28;20261;-86
2020/12/02 08:31:31;;;;;;;0.50;0.50;;;2.20;99.90;;;;;;5051850;28;20254;-86
2020/12/02 08:34:16;;;;;;;0.50;0.50;;;2.20;99.90;;;;;;5052194;28;20204;-86
2020/12/02 08:36:45;;;;;;;0.50;0.50;;;2.20;99.90;;;;;;5052135;28;20571;-86
2020/12/02 08:39:11;;;;;;;0.50;0.50;;;2.20;99.90;;;;;;5052051;28;20212;-86
2020/12/02 08:41:43;;;;;;;0.50;0.50;;;2.20;99.90;;;;;;5052127;28;20620;-86
2020/12/02 08:44:11;;;;;;;0.50;0.50;;;2.20;99.90;;;;;;5052007;28;20262;-86
2020/12/02 08:46:47;;;;;;;0.50;0.50;;;2.30;99.90;;;;;;5051715;28;20670;-86
2020/12/02 08:49:13;;;;;;;0.50;0.50;;;2.20;99.90;;;;;;5051758;28;20200;-87
2020/12/02 08:51:39;;;;;;;0.50;0.50;;;2.20;99.90;;;;;;5051517;28;20270;-85
2020/12/02 08:54:10;;;;;;;0.50;0.50;;;2.20;99.90;;;;;;5051791;28;20200;-86
2020/12/02 08:56:38;;;;;;;0.50;0.50;;;2.20;99.90;;;;;;5051560;28;20236;-86
2020/12/02 08:59:06;;;;;;;0.50;0.50;;;2.30;99.90;;;;;;5051634;28;20258;-86
2020/12/02 09:01:32;;;;;;;0.50;0.50;;;2.30;99.90;;;;;;5051584;28;20216;-86
2020/12/02 09:03:59;;;;;;;0.50;0.50;;;2.40;99.90;;;;;;5051572;28;20205;-86
2020/12/02 09:06:25;;;;;;;0.50;0.50;;;2.30;99.90;;;;;;5051581;28;20200;-86
2020/12/02 09:08:52;;;;;;;0.50;0.50;;;2.40;99.90;;;;;;5050913;28;20208;-85
2020/12/02 09:11:22;;;;;;;0.50;0.50;;;2.30;99.90;;;;;;5051351;28;20323;-85
2020/12/02 09:13:50;;;;;;;0.50;0.50;;;2.40;99.90;;;;;;5051858;28;20204;-85
2020/12/02 09:16:21;;;;;;;0.50;0.50;;;2.40;99.90;;;;;;5051425;28;20228;-85
2020/12/02 09:18:48;;;;;;;0.50;0.50;;;2.40;99.90;;;;;;5051594;28;20611;-85
2020/12/02 09:21:14;;;;;;;0.50;0.50;;;2.40;99.90;;;;;;5050378;28;20275;-86
2020/12/02 09:23:40;;;;;;;0.50;0.50;;;2.50;99.90;;;;;;5051472;28;20235;-87
2020/12/02 09:26:06;;;;;;;0.50;0.50;;;2.50;99.90;;;;;;5050645;28;20204;-85
2020/12/02 09:28:32;;;;;;;0.50;0.50;;;2.50;99.90;;;;;;5050713;28;20218;-86
2020/12/02 09:30:59;;;;;;;0.50;0.50;;;2.50;99.90;;;;;;5051348;28;20204;-86
2020/12/02 09:33:25;;;;;;;0.50;0.50;;;2.50;99.90;;;;;;5054123;28;20249;-86
2020/12/02 09:35:51;;;;;;;0.50;0.50;;;2.50;99.90;;;;;;5054608;28;20261;-85
2020/12/02 09:38:18;;;;;;;0.50;0.50;;;2.50;99.90;;;;;;5054174;28;20236;-86
2020/12/02 09:40:44;;;;;;;0.50;0.50;;;2.50;99.90;;;;;;5051908;28;20196;-86
2020/12/02 09:43:26;;;;;;;0.50;0.50;;;2.50;99.90;;;;;;5050437;28;20208;-86
2020/12/02 09:45:59;;;;;;;0.50;0.50;;;2.50;99.90;;;;;;5051026;28;20708;-86
2020/12/02 09:48:27;;;;;;;0.50;0.50;;;2.50;99.90;;;;;;5052677;28;20204;-86
2020/12/02 09:50:54;;;;;;;0.50;0.50;;;2.60;99.90;;;;;;5052574;28;20204;-86
2020/12/02 09:53:22;;;;;;;0.50;0.50;;;2.60;99.90;;;;;;5052546;28;20732;-85
2020/12/02 09:55:49;;;;;;;0.50;0.50;;;2.60;99.90;;;;;;5052711;28;20200;-85
2020/12/02 09:58:17;;;;;;;0.50;0.50;;;2.60;99.90;;;;;;5051880;28;20486;-86
2020/12/02 10:00:43;;;;;;;0.47;0.47;;;2.70;99.90;;;;;;5048646;28;20215;-86
2020/12/02 10:03:55;;;;;;;0.50;0.50;;;2.80;99.90;;;;;;5050702;28;20200;-86
2020/12/02 10:06:45;;;;;;;0.50;0.50;;;2.70;99.90;;;;;;5050743;28;20204;-86
2020/12/02 10:09:26;;;;;;;0.50;0.50;;;2.80;99.90;;;;;;5051105;28;20204;-86
2020/12/02 10:12:04;;;;;;;0.50;0.50;;;2.70;99.90;;;;;;5050952;28;20827;-85
2020/12/02 10:14:56;;;;;;;0.50;0.50;;;2.80;99.90;;;;;;5050372;28;20208;-86
2020/12/02 10:17:41;;;;;;;0.50;0.50;;;2.70;99.90;;;;;;5050569;28;20646;-86
2020/12/02 10:20:18;;;;;;;0.50;0.50;;;2.80;99.90;;;;;;5050651;28;20207;-86
2020/12/02 10:23:10;;;;;;;0.50;0.50;;;2.90;99.90;;;;;;5050934;28;20204;-86
2020/12/02 10:26:03;;;;;;;0.50;0.50;;;2.90;99.90;;;;;;5050099;28;20283;-85
2020/12/02 10:28:33;;;;;;;0.50;0.50;;;3.00;99.90;;;;;;5050079;28;20212;-86
2020/12/02 10:31:11;;;;;;;0.50;0.50;;;3.10;99.90;;;;;;5050577;28;20655;-86
2020/12/02 10:33:54;;;;;;;0.50;0.50;;;3.10;99.90;;;;;;5050425;28;20265;-85
2020/12/02 10:36:24;;;;;;;0.50;0.50;;;3.10;99.90;;;;;;5050347;28;20212;-85
2020/12/02 10:38:54;;;;;;;0.50;0.50;;;3.10;99.90;;;;;;5050438;28;20725;-85
2020/12/02 10:41:31;;;;;;;0.50;0.50;;;3.20;99.90;;;;;;5050260;28;20200;-85
2020/12/02 10:44:13;;;;;;;0.50;0.50;;;3.20;99.90;;;;;;5050068;28;20196;-86
2020/12/02 10:46:57;;;;;;;0.50;0.50;;;3.30;99.90;;;;;;5050183;28;20219;-85
2020/12/02 10:49:28;;;;;;;0.50;0.50;;;3.40;99.90;;;;;;5050171;28;20273;-85
2020/12/02 10:51:57;;;;;;;0.50;0.50;;;3.60;99.90;;;;;;5050379;28;20344;-85
2020/12/02 10:54:25;;;;;;;0.50;0.50;;;3.80;99.90;;;;;;5050290;28;20250;-85
2020/12/02 10:56:57;;;;;;;0.50;0.50;;;4.10;99.90;;;;;;5049933;28;20227;-86
2020/12/02 10:59:25;;;;;;;0.50;0.50;;;4.40;99.90;;;;;;5050002;28;20211;-86
2020/12/02 11:01:51;;;;;;;0.50;0.50;;;4.60;99.90;;;;;;5049969;28;20201;-86
2020/12/02 11:04:19;;;;;;;0.50;0.50;;;4.60;99.90;;;;;;5049696;28;20201;-86
2020/12/02 11:07:02;;;;;;;0.60;0.60;;;4.60;99.90;;;;;;5049938;28;20209;-86
2020/12/02 11:09:50;;;;;;;0.50;0.50;;;4.60;99.90;;;;;;5049432;28;20211;-86
2020/12/02 11:12:38;;;;;;;0.50;0.50;;;4.30;99.90;;;;;;5049626;28;20232;-86
2020/12/02 11:15:26;;;;;;;0.50;0.50;;;4.00;99.90;;;;;;5049812;28;20200;-86
2020/12/02 11:18:12;;;;;;;0.57;0.57;;;3.70;99.90;;;;;;5049734;28;20645;-85
2020/12/02 11:20:46;;;;;;;0.50;0.50;;;3.60;99.90;;;;;;5049343;28;20207;-85
2020/12/02 11:23:36;;;;;;;0.50;0.50;;;3.50;99.90;;;;;;5049292;28;20675;-86
2020/12/02 11:26:11;;;;;;;0.50;0.50;;;3.40;99.90;;;;;;5049313;28;20209;-86
2020/12/02 11:28:39;;;;;;;0.50;0.50;;;3.40;99.90;;;;;;5049059;28;20234;-86
2020/12/02 11:31:15;;;;;;;0.50;0.50;;;3.40;99.90;;;;;;5049124;28;20212;-85
2020/12/02 11:34:00;;;;;;;0.60;0.60;;;3.80;99.90;;;;;;5048883;28;20728;-85
2020/12/02 11:36:52;;;;;;;0.50;0.50;;;4.00;99.90;;;;;;5048876;28;20196;-86
2020/12/02 11:39:34;;;;;;;0.50;0.50;;;4.40;99.90;;;;;;5048878;28;20204;-86
2020/12/02 11:42:08;;;;;;;0.50;0.50;;;4.90;99.90;;;;;;5049133;28;20196;-86
2020/12/02 11:44:40;;;;;;;0.50;0.50;;;4.50;99.90;;;;;;5048908;28;20749;-85
2020/12/02 11:47:16;;;;;;;0.50;0.50;;;4.70;99.90;;;;;;5048908;28;20620;-86
2020/12/02 11:49:51;;;;;;;0.60;0.60;;;5.00;99.90;;;;;;5049622;28;20580;-86
2020/12/02 11:52:28;;;;;;;0.55;0.55;;;5.40;99.90;;;;;;5047425;28;20199;-85
2020/12/02 11:54:56;;;;;;;0.50;0.50;;;5.60;99.90;;;;;;5048002;28;20270;-85
2020/12/02 11:57:23;;;;;;;0.60;0.60;;;5.50;99.90;;;;;;5048652;28;20228;-86
2020/12/02 11:59:49;;;;;;;0.50;0.50;;;5.70;99.90;;;;;;5049269;28;20235;-86
2020/12/02 12:02:31;;;;;;;0.50;0.50;;;5.60;99.90;;;;;;5051454;28;20200;-87
2020/12/02 12:05:02;;;;;;;0.60;0.60;;;5.60;99.90;;;;;;5051643;28;20279;-86
2020/12/02 12:07:38;;;;;;;0.50;0.50;;;5.50;99.90;;;;;;5049214;28;20204;-86
2020/12/02 12:10:13;;;;;;;0.50;0.50;;;5.50;99.90;;;;;;5052115;28;20228;-86
2020/12/02 12:12:50;;;;;;;0.50;0.50;;;5.70;99.90;;;;;;5051565;28;20557;-86
2020/12/02 12:15:26;;;;;;;0.57;0.57;;;5.70;99.90;;;;;;5064544;28;20222;-86
2020/12/02 12:17:54;;;;;;;0.50;0.50;;;5.80;99.90;;;;;;5072080;28;20231;-86
2020/12/02 12:20:24;;;;;;;0.50;0.50;;;5.70;99.90;;;;;;5072150;28;20203;-86
2020/12/02 12:23:01;;;;;;;0.50;0.50;;;5.70;99.90;;;;;;5072194;28;20260;-86
2020/12/02 12:25:32;;;;;;;0.55;0.55;;;5.70;99.90;;;;;;5070072;28;20604;-86
2020/12/02 12:28:01;;;;;;;0.50;0.50;;;5.60;99.90;;;;;;5070693;28;20855;-86
2020/12/02 12:30:27;;;;;;;0.50;0.50;;;5.60;99.90;;;;;;5070683;28;20203;-88
2020/12/02 12:33:00;;;;;;;0.60;0.60;;;5.50;99.90;;;;;;5070048;28;20203;-87
2020/12/02 12:35:29;;;;;;;0.50;0.50;;;5.10;99.90;;;;;;5062511;28;20196;-87
2020/12/02 12:38:20;;;;;;;0.60;0.60;;;5.00;99.90;;;;;;5051656;28;20310;-86
2020/12/02 12:40:50;;;;;;;0.55;0.55;;;4.80;99.90;;;;;;5051254;28;20203;-86
2020/12/02 12:43:22;;;;;;;0.52;0.52;;;4.60;99.90;;;;;;5051570;28;20250;-86
2020/12/02 12:45:52;;;;;;;0.50;0.50;;;4.50;99.90;;;;;;5051534;28;20208;-86
2020/12/02 12:48:22;;;;;;;0.60;0.60;;;4.50;99.90;;;;;;5051593;28;20208;-87
2020/12/02 12:50:51;;;;;;;0.60;0.60;;;4.70;99.90;;;;;;5051932;28;20261;-87
2020/12/02 12:53:19;;;;;;;0.57;0.57;;;4.90;99.90;;;;;;5071620;28;20207;-86
2020/12/02 12:55:46;;;;;;;0.50;0.50;;;5.00;99.90;;;;;;5071449;28;20204;-86
2020/12/02 12:58:14;;;;;;;0.50;0.50;;;5.00;99.90;;;;;;5071452;28;20235;-86
2020/12/02 13:00:42;;;;;;;0.60;0.60;;;4.90;99.90;;;;;;5071068;28;20203;-86
2020/12/02 13:03:15;;;;;;;0.60;0.60;;;5.00;99.90;;;;;;5058754;28;20200;-86
2020/12/02 13:05:45;;;;;;;0.60;0.60;;;4.90;99.90;;;;;;5067510;28;20204;-86
2020/12/02 13:08:20;;;;;;;0.50;0.50;;;4.80;99.90;;;;;;5057007;28;20659;-86
2020/12/02 13:10:56;;;;;;;0.60;0.60;;;4.70;99.90;;;;;;5065644;28;20231;-86
2020/12/02 13:13:43;;;;;;;0.60;0.60;;;4.70;99.90;;;;;;5073429;28;20229;-86
2020/12/02 13:16:15;;;;;;;0.60;0.60;;;4.70;99.90;;;;;;5073344;28;20196;-86
2020/12/02 13:19:13;;;;;;;0.60;0.60;;;4.60;99.90;;;;;;5073037;28;20305;-86